createdAt,value
2023-04-17T00:01:00.347Z,97902.31
2023-04-17T00:03:26.791Z,97903.05
2023-04-17T00:05:53.302Z,97900.77
2023-04-17T00:08:19.572Z,97896.98
2023-04-17T00:10:51.257Z,97897.57
2023-04-17T00:13:26.770Z,97890.64
2023-04-17T00:15:52.998Z,97891.20
2023-04-17T00:18:19.249Z,97891.27
2023-04-17T00:20:45.506Z,97888.27
2023-04-17T00:23:11.756Z,97888.27
2023-04-17T00:25:38.000Z,97886.57
2023-04-17T00:28:04.329Z,97885.98
2023-04-17T00:30:30.623Z,97887.56
2023-04-17T00:32:56.897Z,97887.94
2023-04-17T00:35:23.199Z,97887.66
2023-04-17T00:37:49.549Z,97884.89
2023-04-17T00:40:15.862Z,97882.54
2023-04-17T00:42:42.196Z,97880.59
2023-04-17T00:45:08.717Z,97880.77
2023-04-17T00:47:35.034Z,97884.63
2023-04-17T00:50:02.232Z,97883.16
2023-04-17T00:52:29.041Z,97884.86
2023-04-17T00:54:56.522Z,97883.48
2023-04-17T00:57:23.686Z,97885.13
2023-04-17T00:59:50.089Z,97886.85
2023-04-17T01:02:17.501Z,97888.32
2023-04-17T01:04:43.929Z,97890.23
2023-04-17T01:07:10.580Z,97887.79
2023-04-17T01:09:37.756Z,97884.86
2023-04-17T01:12:17.275Z,97888.13
2023-04-17T01:14:43.540Z,97888.41
2023-04-17T01:17:10.012Z,97889.58
2023-04-17T01:19:36.410Z,97888.20
2023-04-17T01:22:02.698Z,97890.01
2023-04-17T01:24:29.126Z,97884.73
2023-04-17T01:26:55.554Z,97882.30
2023-04-17T01:29:22.799Z,97889.39
2023-04-17T01:31:49.744Z,97891.29
2023-04-17T01:34:15.964Z,97888.92
2023-04-17T01:36:42.249Z,97886.69
2023-04-17T01:39:08.553Z,97885.98
2023-04-17T01:41:34.851Z,97886.08
2023-04-17T01:44:01.132Z,97882.10
2023-04-17T01:46:28.966Z,97883.47
2023-04-17T01:48:55.958Z,97883.00
2023-04-17T01:51:22.186Z,97881.95
2023-04-17T01:53:48.674Z,97880.44
2023-04-17T01:56:14.971Z,97880.25
2023-04-17T01:58:41.578Z,97879.49
2023-04-17T02:01:07.901Z,97880.84
2023-04-17T02:03:34.458Z,97880.94
2023-04-17T02:06:00.893Z,97877.36
2023-04-17T02:08:27.150Z,97878.92
2023-04-17T02:10:53.462Z,97883.81
2023-04-17T02:13:20.300Z,97883.22
2023-04-17T02:15:46.825Z,97880.29
2023-04-17T02:18:13.156Z,97883.76
2023-04-17T02:20:39.493Z,97879.73
2023-04-17T02:23:06.247Z,97882.85
2023-04-17T02:25:32.854Z,97885.70
2023-04-17T02:27:59.268Z,97883.43
2023-04-17T02:30:27.223Z,97878.86
2023-04-17T02:32:55.512Z,97880.33
2023-04-17T02:35:23.595Z,97881.64
2023-04-17T02:37:49.926Z,97883.39
2023-04-17T02:40:16.182Z,97884.90
2023-04-17T02:42:42.628Z,97886.08
2023-04-17T02:45:09.393Z,97888.98
2023-04-17T02:47:35.866Z,97891.46
2023-04-17T02:50:03.152Z,97888.52
2023-04-17T02:52:34.086Z,97890.13
2023-04-17T02:55:00.758Z,97890.11
2023-04-17T02:57:27.547Z,97891.21
2023-04-17T02:59:53.950Z,97890.27
2023-04-17T03:02:20.390Z,97888.12
2023-04-17T03:04:47.557Z,97889.11
2023-04-17T03:07:14.692Z,97891.08
2023-04-17T03:09:40.968Z,97891.16
2023-04-17T03:12:07.287Z,97895.07
2023-04-17T03:14:33.607Z,97897.05
2023-04-17T03:16:59.997Z,97897.58
2023-04-17T03:19:26.265Z,97895.83
2023-04-17T03:21:52.585Z,97894.98
2023-04-17T03:24:18.805Z,97897.90
2023-04-17T03:26:45.168Z,97904.64
2023-04-17T03:29:15.441Z,97909.02
2023-04-17T03:31:41.874Z,97908.23
2023-04-17T03:34:08.202Z,97914.48
2023-04-17T03:36:34.839Z,97915.50
2023-04-17T03:39:04.302Z,97916.64
2023-04-17T03:41:31.116Z,97921.55
2023-04-17T03:43:57.609Z,97923.08
2023-04-17T03:46:23.983Z,97927.54
2023-04-17T03:48:50.520Z,97927.88
2023-04-17T03:51:17.196Z,97933.02
2023-04-17T03:53:43.544Z,97932.73
2023-04-17T03:56:10.971Z,97928.48
2023-04-17T03:58:40.354Z,97929.73
2023-04-17T04:01:07.763Z,97928.27
2023-04-17T04:03:34.663Z,97937.18
2023-04-17T04:06:01.134Z,97938.83
2023-04-17T04:08:27.978Z,97937.27
2023-04-17T04:10:54.543Z,97935.02
2023-04-17T04:13:33.355Z,97936.29
2023-04-17T04:16:00.869Z,97940.15
2023-04-17T04:18:28.870Z,97947.38
2023-04-17T04:20:55.168Z,97943.08
2023-04-17T04:23:30.658Z,97937.91
2023-04-17T04:25:57.275Z,97939.61
2023-04-17T04:28:28.076Z,97943.38
2023-04-17T04:30:54.496Z,97944.52
2023-04-17T04:33:24.319Z,97945.33
2023-04-17T04:35:51.219Z,97946.31
2023-04-17T04:38:17.609Z,97946.97
2023-04-17T04:40:45.190Z,97947.48
2023-04-17T04:43:11.566Z,97950.94
2023-04-17T04:45:41.371Z,97949.89
2023-04-17T04:48:07.667Z,97948.27
2023-04-17T04:50:34.260Z,97948.28
2023-04-17T04:53:00.915Z,97946.93
2023-04-17T04:55:39.969Z,97944.74
2023-04-17T04:58:06.308Z,97944.61
2023-04-17T05:00:33.279Z,97948.94
2023-04-17T05:03:00.556Z,97950.27
2023-04-17T05:05:27.945Z,97952.59
2023-04-17T05:07:54.733Z,97955.27
2023-04-17T05:10:22.225Z,97954.01
2023-04-17T05:12:51.792Z,97957.36
2023-04-17T05:15:18.453Z,97958.81
2023-04-17T05:17:44.973Z,97959.06
2023-04-17T05:20:12.561Z,97959.48
2023-04-17T05:22:45.679Z,97958.31
2023-04-17T05:25:12.607Z,97963.22
2023-04-17T05:27:38.945Z,97961.35
2023-04-17T05:30:05.727Z,97962.21
2023-04-17T05:32:32.545Z,97963.52
2023-04-17T05:35:05.574Z,97963.48
2023-04-17T05:37:32.210Z,97962.39
2023-04-17T05:39:58.641Z,97962.38
2023-04-17T05:42:25.027Z,97958.12
2023-04-17T05:44:51.824Z,97958.13
2023-04-17T05:47:18.196Z,97955.20
2023-04-17T05:49:44.508Z,97953.48
2023-04-17T05:52:10.887Z,97956.65
2023-04-17T05:54:40.055Z,97954.00
2023-04-17T05:57:07.678Z,97951.17
2023-04-17T05:59:34.612Z,97951.17
2023-04-17T06:02:01.102Z,97951.71
2023-04-17T06:04:28.213Z,97948.42
2023-04-17T06:06:55.526Z,97947.07
2023-04-17T06:09:23.023Z,97947.91
2023-04-17T06:11:50.944Z,97947.46
2023-04-17T06:14:17.355Z,97946.56
2023-04-17T06:16:43.974Z,97945.40
2023-04-17T06:19:10.751Z,97943.44
2023-04-17T06:21:37.821Z,97949.81
2023-04-17T06:24:04.262Z,97946.73
2023-04-17T06:26:31.202Z,97955.38
2023-04-17T06:28:58.211Z,97956.91
2023-04-17T06:31:24.738Z,97959.63
2023-04-17T06:33:51.170Z,97960.27
2023-04-17T06:36:19.301Z,97964.38
2023-04-17T06:38:48.259Z,97972.86
2023-04-17T06:41:16.136Z,97969.37
2023-04-17T06:43:42.641Z,97976.00
2023-04-17T06:46:13.372Z,97985.45
2023-04-17T06:48:39.806Z,97985.88
2023-04-17T06:51:06.668Z,97989.50
2023-04-17T06:53:33.022Z,97986.34
2023-04-17T06:55:59.521Z,97983.77
2023-04-17T06:58:25.901Z,97985.83
2023-04-17T07:00:55.338Z,97985.40
2023-04-17T07:03:25.127Z,97987.08
2023-04-17T07:05:51.587Z,97985.48
2023-04-17T07:08:17.914Z,97990.95
2023-04-17T07:10:44.354Z,97999.72
2023-04-17T07:13:10.712Z,98002.49
2023-04-17T07:15:37.280Z,98001.51
2023-04-17T07:18:03.782Z,98002.60
2023-04-17T07:20:30.318Z,98010.41
2023-04-17T07:22:56.722Z,98011.91
2023-04-17T07:25:23.088Z,98011.79
2023-04-17T07:27:49.511Z,98013.08
2023-04-17T07:30:15.841Z,98014.59
2023-04-17T07:32:42.233Z,98018.52
2023-04-17T07:35:08.672Z,98019.38
2023-04-17T07:37:35.055Z,98017.08
2023-04-17T07:40:01.440Z,98017.13
2023-04-17T07:42:28.045Z,98007.86
2023-04-17T07:44:55.234Z,98003.54
2023-04-17T07:47:21.676Z,98006.19
2023-04-17T07:49:48.249Z,98009.02
2023-04-17T07:52:14.734Z,98012.95
2023-04-17T07:54:41.139Z,98014.21
2023-04-17T07:57:07.505Z,98012.85
2023-04-17T07:59:33.916Z,98014.50
2023-04-17T08:02:00.410Z,98019.66
2023-04-17T08:04:27.132Z,98021.25
2023-04-17T08:06:53.785Z,98024.30
2023-04-17T08:09:20.624Z,98030.25
2023-04-17T08:11:56.381Z,98033.20
2023-04-17T08:14:24.196Z,98029.88
2023-04-17T08:16:50.510Z,98032.23
2023-04-17T08:19:16.913Z,98035.41
2023-04-17T08:21:43.494Z,98031.18
2023-04-17T08:24:09.883Z,98035.14
2023-04-17T08:26:36.220Z,98030.88
2023-04-17T08:29:02.645Z,98026.91
2023-04-17T08:31:29.209Z,98030.02
2023-04-17T08:34:06.250Z,98030.14
2023-04-17T08:36:39.855Z,98023.30
2023-04-17T08:39:06.178Z,98029.48
2023-04-17T08:41:38.783Z,98030.21
2023-04-17T08:44:05.205Z,98026.34
2023-04-17T08:46:31.614Z,98023.93
2023-04-17T08:48:58.055Z,98025.17
2023-04-17T08:51:25.188Z,98025.67
2023-04-17T08:53:51.584Z,98029.70
2023-04-17T08:56:17.851Z,98024.11
2023-04-17T08:58:44.388Z,98034.73
2023-04-17T09:01:11.423Z,98036.71
2023-04-17T09:58:12.959Z,98030.30
2023-04-17T10:00:40.667Z,98032.95
2023-04-17T10:03:07.774Z,98037.64
2023-04-17T10:05:34.749Z,98038.97
2023-04-17T10:08:02.109Z,98041.36
2023-04-17T10:10:29.838Z,98042.63
2023-04-17T10:12:57.526Z,98038.92
2023-04-17T10:15:24.671Z,98041.36
2023-04-17T10:17:51.540Z,98045.48
2023-04-17T10:20:17.969Z,98047.17
2023-04-17T10:22:44.363Z,98039.59
2023-04-17T10:25:10.942Z,98032.42
2023-04-17T10:27:37.413Z,98038.44
2023-04-17T10:30:04.885Z,98033.16
2023-04-17T10:32:31.667Z,98032.07
2023-04-17T10:35:02.163Z,98029.41
2023-04-17T10:37:46.835Z,98030.02
2023-04-17T10:40:23.789Z,98029.90
2023-04-17T10:43:03.058Z,98032.91
2023-04-17T10:45:48.191Z,98034.89
2023-04-17T10:48:19.204Z,98041.25
2023-04-17T10:50:45.643Z,98048.09
2023-04-17T10:53:30.966Z,98049.50
2023-04-17T10:55:57.396Z,98049.25
2023-04-17T10:58:23.670Z,98052.85
2023-04-17T11:01:02.160Z,98048.60
2023-04-17T11:03:29.224Z,98046.56
2023-04-17T11:05:58.244Z,98046.14
2023-04-17T11:08:24.654Z,98047.55
2023-04-17T11:10:56.967Z,98047.45
2023-04-17T11:13:25.451Z,98047.50
2023-04-17T11:15:51.958Z,98046.98
2023-04-17T11:18:20.290Z,98051.70
2023-04-17T11:20:46.579Z,98045.88
2023-04-17T11:23:13.105Z,98043.05
2023-04-17T11:25:39.457Z,98038.36
2023-04-17T11:28:06.345Z,98039.19
2023-04-17T11:30:34.480Z,98040.98
2023-04-17T11:33:02.143Z,98036.64
2023-04-17T11:35:32.924Z,98041.45
2023-04-17T11:38:10.501Z,98042.05
2023-04-17T11:40:52.006Z,98039.65
2023-04-17T11:43:20.239Z,98039.48
2023-04-17T11:45:47.838Z,98037.46
2023-04-17T11:48:14.688Z,98035.24
2023-04-17T11:50:42.510Z,98040.02
2023-04-17T11:53:11.619Z,98040.61
2023-04-17T11:55:38.269Z,98044.44
2023-04-17T11:58:05.839Z,98039.52
2023-04-17T12:00:32.956Z,98039.38
2023-04-17T12:03:00.799Z,98037.48
2023-04-17T12:05:28.487Z,98038.52
2023-04-17T12:07:58.718Z,98043.80
2023-04-17T12:10:35.010Z,98045.20
2023-04-17T12:13:01.329Z,98043.50
2023-04-17T12:15:27.614Z,98046.18
2023-04-17T12:17:53.952Z,98042.89
2023-04-17T12:20:20.247Z,98038.54
2023-04-17T12:22:46.526Z,98039.23
2023-04-17T12:25:12.908Z,98038.04
2023-04-17T12:27:39.348Z,98039.96
2023-04-17T12:30:05.938Z,98038.08
2023-04-17T12:32:32.373Z,98043.10
2023-04-17T12:34:58.713Z,98046.66
2023-04-17T12:37:25.216Z,98044.79
2023-04-17T12:39:51.634Z,98041.58
2023-04-17T12:42:17.975Z,98044.20
2023-04-17T12:44:44.296Z,98044.63
2023-04-17T12:47:10.588Z,98046.38
2023-04-17T12:49:37.005Z,98047.91
2023-04-17T12:52:04.043Z,98048.57
2023-04-17T12:54:30.604Z,98046.30
2023-04-17T12:56:57.315Z,98046.86
2023-04-17T12:59:23.731Z,98043.44
2023-04-17T13:01:50.247Z,98047.03
2023-04-17T13:04:17.083Z,98047.35
2023-04-17T13:06:43.713Z,98048.63
2023-04-17T13:09:10.380Z,98047.91
2023-04-17T13:11:37.408Z,98048.84
2023-04-17T13:14:03.888Z,98045.96
2023-04-17T13:16:30.389Z,98045.87
2023-04-17T13:18:56.724Z,98047.23
2023-04-17T13:21:23.120Z,98042.36
2023-04-17T13:23:49.507Z,98044.52
2023-04-17T13:26:15.986Z,98044.40
2023-04-17T13:28:42.409Z,98045.75
2023-04-17T13:31:08.825Z,98044.85
2023-04-17T13:33:35.148Z,98042.52
2023-04-17T13:36:01.460Z,98042.27
2023-04-17T13:38:28.087Z,98043.50
2023-04-17T13:40:54.446Z,98043.88
2023-04-17T13:43:20.870Z,98042.85
2023-04-17T13:45:47.505Z,98043.84
2023-04-17T13:48:14.053Z,98042.40
2023-04-17T13:50:40.836Z,98041.55
2023-04-17T13:53:08.529Z,98042.49
2023-04-17T13:55:36.586Z,98037.98
2023-04-17T13:58:03.061Z,98039.45
2023-04-17T14:00:29.570Z,98039.73
2023-04-17T14:02:56.133Z,98038.25
2023-04-17T14:05:22.523Z,98038.05
2023-04-17T14:07:48.857Z,98038.20
2023-04-17T14:10:15.228Z,98039.75
2023-04-17T14:12:41.517Z,98037.61
2023-04-17T14:15:08.204Z,98035.52
2023-04-17T14:17:35.518Z,98035.21
2023-04-17T14:20:01.939Z,98037.89
2023-04-17T14:22:28.548Z,98038.24
2023-04-17T14:24:55.112Z,98034.30
2023-04-17T14:27:21.350Z,98032.61
2023-04-17T14:29:47.621Z,98036.86
2023-04-17T14:32:13.930Z,98033.16
2023-04-17T14:34:40.221Z,98033.15
2023-04-17T14:37:06.953Z,98038.16
2023-04-17T14:39:33.266Z,98035.55
2023-04-17T14:42:01.351Z,98034.98
2023-04-17T14:44:28.689Z,98033.70
2023-04-17T14:46:55.024Z,98031.19
2023-04-17T14:49:21.509Z,98033.23
2023-04-17T14:51:48.106Z,98030.36
2023-04-17T14:54:15.640Z,98028.98
2023-04-17T14:56:42.446Z,98030.91
2023-04-17T14:59:08.996Z,98034.27
2023-04-17T15:01:35.369Z,98033.75
2023-04-17T15:04:01.909Z,98033.48
2023-04-17T15:06:28.762Z,98038.39
2023-04-17T15:08:55.514Z,98039.94
2023-04-17T15:11:22.114Z,98036.69
2023-04-17T15:13:48.869Z,98040.91
2023-04-17T15:16:15.232Z,98037.48
2023-04-17T15:18:41.687Z,98035.95
2023-04-17T15:21:07.986Z,98031.60
2023-04-17T15:23:34.272Z,98030.90
2023-04-17T15:26:00.759Z,98030.95
2023-04-17T15:28:27.418Z,98030.52
2023-04-17T15:30:54.640Z,98031.92
2023-04-17T15:33:21.028Z,98033.02
2023-04-17T15:35:52.700Z,98028.35
2023-04-17T15:38:18.958Z,98029.98
2023-04-17T15:40:45.292Z,98028.80
2023-04-17T15:43:11.751Z,98028.39
2023-04-17T15:45:38.179Z,98026.67
2023-04-17T15:48:04.629Z,98030.42
2023-04-17T15:50:31.029Z,98032.40
2023-04-17T15:52:57.371Z,98034.55
2023-04-17T15:55:23.724Z,98034.92
2023-04-17T15:57:50.221Z,98035.90
2023-04-17T16:00:17.082Z,98031.56
2023-04-17T16:02:43.664Z,98029.52
2023-04-17T16:05:10.779Z,98030.77
2023-04-17T16:07:37.086Z,98026.36
2023-04-17T16:10:03.734Z,98029.35
2023-04-17T16:12:30.069Z,98027.67
2023-04-17T16:14:56.340Z,98031.30
2023-04-17T16:17:22.864Z,98030.86
2023-04-17T16:19:50.752Z,98032.63
2023-04-17T16:22:17.835Z,98037.00
2023-04-17T16:24:44.397Z,98036.10
2023-04-17T16:27:10.769Z,98037.08
2023-04-17T16:29:37.091Z,98038.39
2023-04-17T16:32:03.545Z,98041.06
2023-04-17T16:34:29.879Z,98040.06
2023-04-17T16:36:56.212Z,98038.30
2023-04-17T16:39:22.518Z,98039.23
2023-04-17T16:41:48.933Z,98044.90
2023-04-17T16:44:15.405Z,98047.67
2023-04-17T16:46:59.246Z,98051.82
2023-04-17T16:49:28.655Z,98050.94
2023-04-17T16:51:55.084Z,98055.27
2023-04-17T16:54:21.691Z,98054.06
2023-04-17T16:56:48.730Z,98055.48
2023-04-17T16:59:15.299Z,98058.19
2023-04-17T17:01:41.719Z,98058.45
2023-04-17T17:04:08.458Z,98062.88
2023-04-17T17:06:35.045Z,98061.54
2023-04-17T17:09:01.392Z,98061.81
2023-04-17T17:11:27.969Z,98065.11
2023-04-17T17:13:54.478Z,98066.79
2023-04-17T17:16:21.026Z,98068.36
2023-04-17T17:18:48.269Z,98067.30
2023-04-17T17:21:14.730Z,98071.39
2023-04-17T17:23:41.363Z,98070.94
2023-04-17T17:26:08.183Z,98072.38
2023-04-17T17:28:34.589Z,98071.02
2023-04-17T17:31:01.713Z,98073.55
2023-04-17T17:33:28.957Z,98072.70
2023-04-17T17:35:55.811Z,98078.95
2023-04-17T17:38:22.712Z,98080.29
2023-04-17T17:40:51.778Z,98079.49
2023-04-17T17:43:18.437Z,98079.36
2023-04-17T17:45:45.430Z,98079.60
2023-04-17T17:48:11.895Z,98078.79
2023-04-17T17:50:39.543Z,98082.25
2023-04-17T17:53:06.133Z,98083.44
2023-04-17T17:55:32.545Z,98085.50
2023-04-17T17:57:58.925Z,98086.05
2023-04-17T18:00:25.358Z,98084.73
2023-04-17T18:02:51.987Z,98087.48
2023-04-17T18:05:18.654Z,98096.12
2023-04-17T18:07:45.396Z,98097.35
2023-04-17T18:10:12.319Z,98097.91
2023-04-17T18:12:39.065Z,98102.21
2023-04-17T18:15:06.287Z,98102.83
2023-04-17T18:17:32.712Z,98105.48
2023-04-17T18:19:59.497Z,98108.30
2023-04-17T18:22:26.119Z,98111.43
2023-04-17T18:24:53.383Z,98112.27
2023-04-17T18:27:20.143Z,98114.96
2023-04-17T18:29:46.826Z,98114.92
2023-04-17T18:32:13.591Z,98115.86
2023-04-17T18:34:40.266Z,98115.89
2023-04-17T18:37:06.791Z,98117.27
2023-04-17T18:39:33.714Z,98115.77
2023-04-17T18:42:00.209Z,98121.48
2023-04-17T18:44:26.861Z,98118.09
2023-04-17T18:46:53.686Z,98114.83
2023-04-17T18:49:20.134Z,98117.25
2023-04-17T18:51:48.524Z,98114.33
2023-04-17T18:54:40.513Z,98116.30
2023-04-17T18:57:10.008Z,98119.87
2023-04-17T18:59:59.152Z,98117.27
2023-04-17T19:02:27.745Z,98122.40
2023-04-17T19:04:56.158Z,98122.15
2023-04-17T19:07:22.997Z,98119.06
2023-04-17T19:09:49.805Z,98119.31
2023-04-17T19:12:44.570Z,98118.81
2023-04-17T19:15:13.275Z,98117.79
2023-04-17T19:17:39.761Z,98118.50
2023-04-17T19:22:49.396Z,98116.75
2023-04-17T19:25:16.259Z,98115.16
2023-04-17T19:27:42.703Z,98117.48
2023-04-17T19:30:09.611Z,98113.95
2023-04-17T19:32:36.209Z,98116.52
2023-04-17T19:35:06.309Z,98112.46
2023-04-17T19:37:33.196Z,98114.59
2023-04-17T19:40:08.479Z,98111.46
2023-04-17T19:42:41.078Z,98109.78
2023-04-17T19:45:08.210Z,98107.81
2023-04-17T19:47:35.130Z,98103.36
2023-04-17T19:50:01.688Z,98104.97
2023-04-17T19:52:28.817Z,98100.64
2023-04-17T19:54:55.556Z,98098.86
2023-04-17T19:57:24.328Z,98100.44
2023-04-17T19:59:50.910Z,98097.39
2023-04-17T20:02:17.463Z,98096.44
2023-04-17T20:04:44.230Z,98099.34
2023-04-17T20:07:10.806Z,98093.55
2023-04-17T20:09:41.713Z,98098.05
2023-04-17T20:12:08.301Z,98094.10
2023-04-17T20:14:34.966Z,98094.52
2023-04-17T20:17:01.535Z,98092.91
2023-04-17T20:19:27.893Z,98093.06
2023-04-17T20:21:54.388Z,98093.79
2023-04-17T20:24:20.723Z,98090.41
2023-04-17T20:26:47.472Z,98090.02
2023-04-17T20:29:14.023Z,98088.94
2023-04-17T20:31:40.702Z,98087.52
2023-04-17T20:34:07.199Z,98092.19
2023-04-17T20:36:33.632Z,98091.89
2023-04-17T20:39:00.017Z,98088.73
2023-04-17T20:41:26.348Z,98092.83
2023-04-17T20:43:59.261Z,98090.40
2023-04-17T20:46:26.234Z,98091.70
2023-04-17T20:48:52.804Z,98093.27
2023-04-17T20:51:20.398Z,98092.77
2023-04-17T20:53:46.682Z,98095.78
2023-04-17T20:56:13.019Z,98096.22
2023-04-17T20:58:39.299Z,98097.14
2023-04-17T21:01:05.562Z,98095.27
2023-04-17T21:03:32.066Z,98098.16
2023-04-17T21:05:59.006Z,98098.20
2023-04-17T21:08:25.462Z,98100.67
2023-04-17T21:10:51.786Z,98099.11
2023-04-17T21:13:18.088Z,98100.73
2023-04-17T21:15:44.416Z,98100.23
2023-04-17T21:18:10.805Z,98100.84
2023-04-17T21:20:39.274Z,98102.42
2023-04-17T21:23:05.611Z,98100.84
2023-04-17T21:25:32.029Z,98101.52
2023-04-17T21:27:58.421Z,98103.15
2023-04-17T21:30:27.139Z,98104.13
2023-04-17T21:32:53.791Z,98102.61
2023-04-17T21:35:20.203Z,98102.09
2023-04-17T21:37:46.504Z,98100.69
2023-04-17T21:40:13.048Z,98099.09
2023-04-17T21:42:39.373Z,98098.76
2023-04-17T21:45:05.982Z,98099.45
2023-04-17T21:47:32.683Z,98095.60
2023-04-17T21:49:58.991Z,98097.85
2023-04-17T21:52:25.298Z,98095.17
2023-04-17T21:54:51.613Z,98096.61
2023-04-17T21:57:17.936Z,98092.59
2023-04-17T21:59:44.359Z,98094.55
2023-04-17T22:02:10.766Z,98096.30
2023-04-17T22:04:37.105Z,98093.50
2023-04-17T22:07:03.522Z,98095.27
2023-04-17T22:09:29.872Z,98093.84
2023-04-17T22:11:56.274Z,98094.90
2023-04-17T22:14:22.569Z,98094.73
2023-04-17T22:16:48.929Z,98094.70
2023-04-17T22:19:15.222Z,98093.15
2023-04-17T22:21:41.507Z,98092.55
2023-04-17T22:24:07.813Z,98094.96
2023-04-17T22:26:34.159Z,98095.85
2023-04-17T22:29:00.397Z,98094.13
2023-04-17T22:31:26.817Z,98095.84
2023-04-17T22:33:53.152Z,98096.55
2023-04-17T22:36:19.398Z,98097.72
2023-04-17T22:38:45.708Z,98098.65
2023-04-17T22:41:12.008Z,98099.02
2023-04-17T22:43:38.247Z,98098.17
2023-04-17T22:46:05.035Z,98098.66
2023-04-17T22:48:31.369Z,98099.71
2023-04-17T22:50:57.610Z,98099.88
2023-04-17T22:53:23.985Z,98097.12
2023-04-17T22:56:03.038Z,98099.38
2023-04-17T22:58:29.971Z,98098.52
2023-04-17T23:00:56.253Z,98094.92
2023-04-17T23:03:22.646Z,98097.95
2023-04-17T23:05:48.923Z,98100.23
2023-04-17T23:08:15.300Z,98094.52
2023-04-17T23:10:41.735Z,98094.66
2023-04-17T23:13:08.909Z,98093.93
2023-04-17T23:15:35.627Z,98094.23
2023-04-17T23:18:02.163Z,98089.63
2023-04-17T23:20:28.478Z,98090.89
2023-04-17T23:22:54.757Z,98091.80
2023-04-17T23:25:21.133Z,98087.16
2023-04-17T23:27:47.327Z,98085.17
2023-04-17T23:30:13.759Z,98087.73
2023-04-17T23:32:40.067Z,98081.01
2023-04-17T23:35:06.730Z,98081.65
2023-04-17T23:37:32.984Z,98082.38
2023-04-17T23:39:59.323Z,98079.84
2023-04-17T23:42:25.773Z,98083.31
2023-04-17T23:44:52.893Z,98080.02
2023-04-17T23:47:19.204Z,98079.51
2023-04-17T23:49:45.494Z,98083.10
2023-04-17T23:52:11.846Z,98078.15
2023-04-17T23:54:38.131Z,98078.96
2023-04-17T23:57:04.368Z,98079.97
2023-04-17T23:59:30.656Z,98076.52
